Time;durP1;ratioP1;P1;durP2;ratioP2;P2;SDS_P1;SDS_P2;PMS_P1;PMS_P2;Temp;Humidity;BMP_temperature;BMP_pressure;BME280_temperature;BME280_humidity;BME280_pressure;Samples;Min_cycle;Max_cycle;Signal;HPM_P1;HPM_P2
2021/01/02 00:01:17;;;;;;;3.07;2.87;;;;;;;18.62;45.93;100637.06;5025785;28;20211;-69
2021/01/02 00:04:00;;;;;;;3.40;3.10;;;;;;;18.67;45.49;100630.13;5039356;28;20250;-68
2021/01/02 00:06:40;;;;;;;3.40;3.20;;;;;;;18.70;45.64;100640.66;5041461;28;20195;-69
2021/01/02 00:09:06;;;;;;;3.13;2.93;;;;;;;18.73;45.60;100641.34;5038409;28;20250;-69
2021/01/02 00:11:42;;;;;;;3.07;2.87;;;;;;;18.72;45.76;100632.34;5042293;28;20191;-62
2021/01/02 00:14:25;;;;;;;3.50;2.87;;;;;;;18.69;45.67;100635.38;5040607;28;20206;-62
2021/01/02 00:17:15;;;;;;;3.10;2.90;;;;;;;18.63;45.30;100636.91;5025047;28;20243;-61
2021/01/02 00:20:03;;;;;;;3.70;3.40;;;;;;;18.59;45.84;100634.69;5056111;28;20200;-61
2021/01/02 00:22:46;;;;;;;3.27;3.07;;;;;;;18.50;45.89;100623.03;5041984;28;20321;-61
2021/01/02 00:25:48;;;;;;;2.90;2.70;;;;;;;18.48;45.59;100635.91;5058332;28;20282;-62
2021/01/02 00:28:22;;;;;;;3.20;2.80;;;;;;;18.40;45.53;100639.44;5058303;28;20187;-66
2021/01/02 00:31:00;;;;;;;3.23;3.03;;;;;;;18.34;45.99;100636.56;5075737;28;20179;-61
2021/01/02 00:33:44;;;;;;;2.90;2.70;;;;;;;18.29;46.03;100641.63;5057982;28;20183;-62
2021/01/02 00:36:39;;;;;;;2.93;2.73;;;;;;;18.18;46.11;100639.25;5058158;28;20611;-61
2021/01/02 00:39:07;;;;;;;2.97;2.77;;;;;;;18.08;45.88;100645.66;5059547;28;20180;-61
2021/01/02 00:41:34;;;;;;;3.03;2.83;;;;;;;18.09;46.06;100646.53;5041502;28;20207;-66
2021/01/02 00:44:00;;;;;;;3.00;2.80;;;;;;;18.11;46.02;100644.47;5058054;28;20219;-68
2021/01/02 00:46:27;;;;;;;3.27;2.97;;;;;;;18.13;46.15;100641.59;5041279;28;20192;-61
2021/01/02 00:48:53;;;;;;;3.17;2.97;;;;;;;18.13;46.06;100644.31;5058074;28;20207;-61
2021/01/02 00:51:19;;;;;;;3.10;2.80;;;;;;;18.13;45.70;100637.03;5040581;28;20179;-62
2021/01/02 00:53:54;;;;;;;3.10;2.90;;;;;;;18.14;46.30;100644.16;5040122;28;20608;-61
2021/01/02 00:56:29;;;;;;;3.10;2.90;;;;;;;18.16;45.71;100649.41;5041032;28;20183;-69
2021/01/02 00:59:04;;;;;;;3.10;2.90;;;;;;;18.17;45.90;100653.78;5074303;28;20266;-68
2021/01/02 01:01:35;;;;;;;3.03;2.80;;;;;;;18.23;46.10;100653.16;5039989;28;20199;-68
2021/01/02 01:04:21;;;;;;;2.80;2.60;;;;;;;18.33;45.86;100653.84;5073949;28;20226;-68
2021/01/02 01:06:47;;;;;;;2.50;2.40;;;;;;;18.42;45.72;100652.81;5057951;28;20179;-68
2021/01/02 01:09:14;;;;;;;2.40;2.30;;;;;;;18.54;46.04;100646.06;5039799;28;20672;-68
2021/01/02 01:11:40;;;;;;;2.80;2.60;;;;;;;18.62;45.78;100656.91;5074043;28;20497;-62
2021/01/02 01:14:06;;;;;;;2.80;2.60;;;;;;;18.69;45.62;100655.25;5039803;28;20203;-61
2021/01/02 01:16:44;;;;;;;3.10;2.90;;;;;;;18.76;45.64;100659.97;5039999;28;20916;-61
2021/01/02 01:19:11;;;;;;;3.20;3.00;;;;;;;18.81;45.48;100657.59;5056248;28;20187;-67
2021/01/02 01:21:43;;;;;;;2.83;2.63;;;;;;;18.81;45.76;100655.72;5056489;28;20517;-68
2021/01/02 01:24:16;;;;;;;2.90;2.70;;;;;;;18.82;45.65;100662.84;5073821;28;20207;-68
2021/01/02 01:27:09;;;;;;;2.80;2.60;;;;;;;18.81;45.15;100663.00;5056145;28;20626;-68
2021/01/02 01:29:47;;;;;;;2.83;2.63;;;;;;;18.76;45.18;100659.97;5055911;28;20175;-68
2021/01/02 01:32:15;;;;;;;2.80;2.60;;;;;;;18.72;45.26;100674.91;5040234;28;20185;-62
2021/01/02 01:34:41;;;;;;;2.90;2.70;;;;;;;18.65;45.45;100669.28;5039510;28;20232;-68
2021/01/02 01:37:07;;;;;;;2.70;2.50;;;;;;;18.59;45.63;100676.19;5039514;28;20539;-68
2021/01/02 01:39:34;;;;;;;3.00;2.80;;;;;;;18.53;45.43;100671.47;5073491;28;20180;-68
2021/01/02 01:42:05;;;;;;;2.87;2.67;;;;;;;18.50;45.77;100681.81;5073419;28;20211;-68
2021/01/02 01:44:52;;;;;;;3.03;2.83;;;;;;;18.38;45.78;100682.13;5073348;28;20218;-67
2021/01/02 01:47:21;;;;;;;3.00;2.80;;;;;;;18.33;45.60;100681.78;5073391;28;20197;-61
2021/01/02 01:49:55;;;;;;;2.90;2.70;;;;;;;18.26;45.97;100680.75;5055654;28;20187;-67
2021/01/02 01:53:10;;;;;;;2.90;2.70;;;;;;;18.20;45.57;100691.38;5055735;28;20183;-68
2021/01/02 01:55:48;;;;;;;2.83;2.63;;;;;;;18.16;45.69;100687.31;4981511;28;20200;-61
2021/01/02 01:58:17;;;;;;;2.90;2.70;;;;;;;18.19;45.89;100690.53;5073247;28;20207;-61
2021/01/02 02:00:45;;;;;;;3.00;2.80;;;;;;;18.18;45.62;100688.00;5073137;28;20183;-61
2021/01/02 02:03:46;;;;;;;2.50;2.40;;;;;;;18.22;45.53;100684.81;5072944;28;20630;-62
2021/01/02 02:06:22;;;;;;;2.80;2.60;;;;;;;18.22;46.05;100683.97;5000257;28;20207;-67
2021/01/02 02:08:55;;;;;;;3.20;2.90;;;;;;;18.21;45.56;100680.38;5072953;28;20315;-61
2021/01/02 02:11:33;;;;;;;3.10;2.80;;;;;;;17.96;45.58;100649.69;5039463;28;20641;-69
2021/01/02 02:14:15;;;;;;;2.60;2.50;;;;;;;18.23;45.67;100691.09;5072769;28;20213;-68
2021/01/02 02:16:52;;;;;;;2.77;2.57;;;;;;;18.24;45.66;100688.22;5072083;28;20227;-66
2021/01/02 02:19:48;;;;;;;2.90;2.70;;;;;;;18.23;46.04;100681.09;5056606;28;20218;-67
2021/01/02 02:22:15;;;;;;;2.93;2.73;;;;;;;18.22;46.08;100679.41;5072661;28;20219;-68
2021/01/02 02:24:43;;;;;;;3.00;2.80;;;;;;;18.21;45.93;100677.66;5055245;28;20214;-68
2021/01/02 02:27:13;;;;;;;2.80;2.60;;;;;;;18.20;46.22;100678.69;5055342;28;20262;-61
2021/01/02 02:29:45;;;;;;;2.60;2.40;;;;;;;17.96;46.06;100640.72;5038969;28;20704;-61
2021/01/02 02:32:11;;;;;;;2.90;2.70;;;;;;;18.15;46.13;100678.34;5055064;28;20217;-67
2021/01/02 02:34:37;;;;;;;2.70;2.50;;;;;;;18.17;46.15;100675.47;5038319;28;20191;-68
2021/01/02 02:37:03;;;;;;;2.90;2.70;;;;;;;18.24;46.25;100677.38;5049528;28;20690;-67
2021/01/02 02:39:30;;;;;;;2.90;2.70;;;;;;;18.30;46.18;100673.97;5034794;28;20215;-67
2021/01/02 02:41:59;;;;;;;2.57;2.37;;;;;;;18.35;46.23;100676.19;5051839;28;20226;-67
2021/01/02 02:44:28;;;;;;;2.70;2.50;;;;;;;18.41;45.71;100675.50;5052302;28;20208;-68
2021/01/02 02:46:59;;;;;;;2.70;2.60;;;;;;;18.46;45.61;100675.88;5034686;28;20798;-62
2021/01/02 02:49:29;;;;;;;2.73;2.53;;;;;;;18.50;46.10;100665.53;5052248;28;20186;-62
2021/01/02 02:52:15;;;;;;;2.90;2.70;;;;;;;18.51;45.60;100673.50;5052006;28;20181;-62
2021/01/02 02:54:41;;;;;;;3.00;2.80;;;;;;;18.53;45.73;100671.47;5020677;28;20200;-62
2021/01/02 02:57:08;;;;;;;3.00;2.80;;;;;;;18.55;45.71;100674.84;5001799;28;20237;-62
2021/01/02 02:59:34;;;;;;;2.73;2.53;;;;;;;18.55;45.36;100674.00;5034348;28;20180;-62
2021/01/02 03:02:04;;;;;;;2.77;2.57;;;;;;;18.56;45.57;100675.69;5051911;28;20218;-62
2021/01/02 03:04:32;;;;;;;2.57;2.40;;;;;;;18.53;45.67;100673.31;5018366;28;20222;-62
2021/01/02 03:07:01;;;;;;;2.77;2.57;;;;;;;18.50;45.48;100670.97;5018202;28;20192;-65
2021/01/02 03:09:28;;;;;;;2.73;2.53;;;;;;;18.49;45.61;100674.69;5051847;28;20506;-68
2021/01/02 03:11:54;;;;;;;2.77;2.57;;;;;;;18.50;45.76;100677.22;5034525;28;20180;-62
2021/01/02 03:14:20;;;;;;;3.17;2.97;;;;;;;18.49;45.66;100675.53;5034201;28;20208;-62
2021/01/02 03:16:46;;;;;;;2.70;2.50;;;;;;;18.53;45.59;100682.31;5051651;28;20612;-61
2021/01/02 03:19:12;;;;;;;2.80;2.60;;;;;;;18.53;45.49;100676.88;5051641;28;20180;-61
2021/01/02 03:21:38;;;;;;;2.83;2.63;;;;;;;18.55;45.50;100677.56;5051509;28;20215;-61
2021/01/02 03:24:06;;;;;;;2.70;2.50;;;;;;;18.55;45.65;100680.28;5017773;28;20208;-60
2021/01/02 03:26:32;;;;;;;2.80;2.60;;;;;;;18.55;45.46;100680.28;5034383;28;20283;-61
2021/01/02 03:28:58;;;;;;;2.67;2.47;;;;;;;18.53;45.50;100678.75;5034173;28;20196;-61
2021/01/02 03:31:24;;;;;;;2.73;2.57;;;;;;;18.51;45.58;100684.34;5033716;28;20203;-61
2021/01/02 03:33:50;;;;;;;2.50;2.40;;;;;;;18.48;45.61;100684.69;5033747;28;20218;-67
2021/01/02 03:36:17;;;;;;;2.70;2.50;;;;;;;18.47;45.62;100693.81;5051444;28;20188;-67
2021/01/02 03:38:54;;;;;;;2.77;2.57;;;;;;;18.42;45.70;100690.75;5051397;28;20180;-61
2021/01/02 03:41:20;;;;;;;2.80;2.60;;;;;;;18.40;45.84;100681.94;5018468;28;20387;-68
2021/01/02 03:43:46;;;;;;;2.60;2.40;;;;;;;18.36;45.52;100683.28;5051249;28;20196;-68
2021/01/02 03:46:12;;;;;;;2.80;2.60;;;;;;;18.30;45.58;100684.81;5051308;28;20254;-68
2021/01/02 03:48:38;;;;;;;2.63;2.43;;;;;;;18.25;45.69;100689.06;5051387;28;20215;-68
2021/01/02 03:51:04;;;;;;;2.60;2.40;;;;;;;18.22;46.02;100686.69;5051280;28;20575;-68
2021/01/02 03:53:30;;;;;;;2.47;2.27;;;;;;;18.18;45.67;100690.72;5035640;28;20543;-68
2021/01/02 03:55:57;;;;;;;2.60;2.40;;;;;;;18.14;45.78;100686.66;5055529;28;20290;-68
2021/01/02 03:58:23;;;;;;;2.90;2.70;;;;;;;18.11;45.95;100690.53;5055376;28;20184;-67
2021/01/02 04:00:49;;;;;;;2.67;2.50;;;;;;;18.05;45.89;100693.91;5021154;28;20242;-67
2021/01/02 04:03:15;;;;;;;2.70;2.53;;;;;;;18.03;45.83;100691.38;5037382;28;20192;-67
2021/01/02 04:05:48;;;;;;;2.80;2.60;;;;;;;18.06;45.79;100690.19;5055295;28;20184;-67
2021/01/02 04:08:14;;;;;;;3.00;2.80;;;;;;;18.06;46.37;100688.31;5055280;28;20206;-67
2021/01/02 04:10:40;;;;;;;2.60;2.40;;;;;;;18.14;45.71;100687.50;5021353;28;20608;-67
2021/01/02 04:13:06;;;;;;;2.70;2.50;;;;;;;18.22;45.81;100683.97;5055092;28;20188;-69
2021/01/02 04:15:33;;;;;;;2.70;2.50;;;;;;;18.31;45.72;100682.97;5021099;28;20195;-69
2021/01/02 04:17:59;;;;;;;2.60;2.40;;;;;;;18.40;46.16;100679.22;5055240;28;20206;-62
2021/01/02 04:20:26;;;;;;;2.87;2.67;;;;;;;18.49;45.60;100670.13;5037722;28;20525;-68
2021/01/02 04:22:53;;;;;;;2.43;2.33;;;;;;;18.58;45.59;100668.25;5037457;28;20560;-68
2021/01/02 04:25:19;;;;;;;2.80;2.60;;;;;;;18.62;45.48;100665.03;5054787;28;20223;-69
2021/01/02 04:27:45;;;;;;;2.60;2.40;;;;;;;18.64;45.18;100663.00;5037398;28;20212;-68
2021/01/02 04:30:11;;;;;;;2.87;2.67;;;;;;;18.67;45.63;100669.97;5054840;28;20614;-68
2021/01/02 04:32:37;;;;;;;2.50;2.40;;;;;;;18.68;45.65;100672.50;5037360;28;20262;-68
2021/01/02 04:35:03;;;;;;;2.70;2.50;;;;;;;18.65;45.62;100664.69;5054836;28;20200;-68
2021/01/02 04:37:30;;;;;;;2.83;2.63;;;;;;;18.64;45.15;100664.88;5054658;28;20188;-69
2021/01/02 04:39:56;;;;;;;2.83;2.63;;;;;;;18.61;45.10;100676.88;5037025;28;20275;-68
2021/01/02 04:42:22;;;;;;;2.37;2.23;;;;;;;18.57;45.49;100670.09;5036969;28;20635;-69
2021/01/02 04:44:51;;;;;;;2.80;2.60;;;;;;;18.52;45.75;100675.19;5037073;28;20710;-67
2021/01/02 04:47:21;;;;;;;3.10;2.90;;;;;;;18.47;45.55;100676.72;5037595;28;20191;-67
2021/01/02 04:49:47;;;;;;;2.97;2.77;;;;;;;18.41;45.34;100668.22;5004383;28;20176;-68
2021/01/02 04:52:15;;;;;;;2.70;2.50;;;;;;;18.35;45.49;100676.19;5054508;28;20184;-68
2021/01/02 04:54:41;;;;;;;2.50;2.37;;;;;;;18.28;45.86;100672.47;5037047;28;20820;-68
2021/01/02 04:57:10;;;;;;;3.03;2.80;;;;;;;18.23;45.87;100669.41;5020771;28;20188;-61
2021/01/02 04:59:36;;;;;;;2.90;2.70;;;;;;;18.15;45.64;100672.94;5036943;28;20275;-61
2021/01/02 05:02:02;;;;;;;2.53;2.37;;;;;;;18.07;46.19;100670.22;5020308;28;20219;-61
2021/01/02 05:04:28;;;;;;;2.60;2.40;;;;;;;18.09;45.67;100677.16;5035945;28;20769;-61
2021/01/02 05:06:54;;;;;;;2.80;2.60;;;;;;;18.12;45.73;100675.97;5054183;28;20211;-61
2021/01/02 05:09:20;;;;;;;2.57;2.37;;;;;;;18.14;46.05;100683.94;5003740;28;20275;-61
2021/01/02 05:11:46;;;;;;;2.80;2.60;;;;;;;18.14;45.90;100682.06;5020239;28;20180;-61
2021/01/02 05:14:12;;;;;;;2.93;2.73;;;;;;;18.17;45.63;100678.19;5053916;28;20266;-67
2021/01/02 05:16:39;;;;;;;2.80;2.60;;;;;;;18.17;45.77;100679.03;5053921;28;20424;-61
2021/01/02 05:19:09;;;;;;;2.97;2.77;;;;;;;18.27;45.64;100681.59;5053806;28;20182;-61
2021/01/02 05:21:36;;;;;;;2.70;2.50;;;;;;;18.37;45.58;100687.69;5053764;28;20215;-61
2021/01/02 05:24:02;;;;;;;2.80;2.60;;;;;;;18.45;45.53;100679.56;5019915;28;20204;-61
2021/01/02 05:26:29;;;;;;;2.60;2.40;;;;;;;18.56;46.00;100678.41;5036494;28;20185;-61
2021/01/02 05:29:28;;;;;;;2.60;2.40;;;;;;;18.65;45.56;100680.13;5036359;28;20686;-61
2021/01/02 05:31:55;;;;;;;2.63;2.43;;;;;;;18.73;45.43;100692.84;4983436;28;20563;-61
2021/01/02 05:34:23;;;;;;;2.80;2.60;;;;;;;18.76;45.44;100692.50;5019716;28;20273;-67
2021/01/02 05:36:59;;;;;;;2.53;2.33;;;;;;;18.79;45.49;100692.16;5036267;28;20192;-61
2021/01/02 05:39:37;;;;;;;2.90;2.70;;;;;;;18.81;45.31;100690.13;5036242;28;20179;-62
2021/01/02 05:42:04;;;;;;;2.70;2.50;;;;;;;18.79;45.41;100692.16;5037562;28;20327;-62
2021/01/02 05:44:33;;;;;;;3.00;2.80;;;;;;;18.76;45.10;100697.94;5020333;28;20204;-62
2021/01/02 05:46:59;;;;;;;2.93;2.73;;;;;;;18.70;45.51;100705.75;5003864;28;20192;-62
2021/01/02 05:49:32;;;;;;;2.63;2.43;;;;;;;18.69;45.23;100704.03;5035991;28;20212;-62
2021/01/02 05:52:00;;;;;;;2.60;2.40;;;;;;;18.65;45.25;100699.94;5035823;28;20184;-62
2021/01/02 05:54:27;;;;;;;2.80;2.60;;;;;;;18.58;45.45;100704.31;5003034;28;20652;-67
2021/01/02 05:56:56;;;;;;;2.93;2.73;;;;;;;18.53;45.08;100705.84;5035825;28;20188;-67
2021/01/02 05:59:35;;;;;;;2.90;2.70;;;;;;;18.45;45.64;100705.81;5053082;28;20277;-68
2021/01/02 06:02:21;;;;;;;2.70;2.50;;;;;;;18.38;45.70;100711.06;5053210;28;20211;-67
2021/01/02 06:05:06;;;;;;;2.63;2.43;;;;;;;18.30;45.74;100719.19;5052978;28;20299;-67
2021/01/02 06:07:33;;;;;;;3.00;2.80;;;;;;;18.22;45.47;100717.31;5035402;28;20271;-67
2021/01/02 06:10:00;;;;;;;2.73;2.53;;;;;;;18.25;45.72;100717.00;5035583;28;20187;-68
2021/01/02 06:12:33;;;;;;;2.90;2.70;;;;;;;18.26;45.68;100721.41;5035672;28;20244;-62
2021/01/02 06:15:03;;;;;;;2.97;2.77;;;;;;;18.26;45.97;100724.09;5018988;28;20209;-62
2021/01/02 06:17:30;;;;;;;2.70;2.50;;;;;;;18.28;45.43;100721.22;5018227;28;20207;-61
2021/01/02 06:19:58;;;;;;;2.80;2.60;;;;;;;18.27;45.87;100714.97;5019175;28;20180;-68
2021/01/02 06:22:25;;;;;;;2.90;2.70;;;;;;;18.28;45.36;100729.34;5035609;28;20230;-68
2021/01/02 06:24:51;;;;;;;2.70;2.50;;;;;;;18.29;45.88;100728.34;5052942;28;20214;-68
2021/01/02 06:27:18;;;;;;;3.00;2.80;;;;;;;18.28;45.86;100723.94;5052655;28;20224;-61
2021/01/02 06:29:57;;;;;;;2.80;2.60;;;;;;;18.29;45.70;100720.22;5035022;28;20263;-67
2021/01/02 06:32:24;;;;;;;2.77;2.50;;;;;;;18.25;45.88;100726.97;5019376;28;20180;-68
2021/01/02 06:35:09;;;;;;;2.80;2.60;;;;;;;18.25;45.53;100732.41;5018526;28;20200;-69
2021/01/02 06:37:50;;;;;;;3.00;2.80;;;;;;;18.25;45.46;100722.41;5052355;28;20243;-62
2021/01/02 06:40:19;;;;;;;2.90;2.70;;;;;;;18.23;45.80;100729.00;5052243;28;20180;-62
2021/01/02 06:43:02;;;;;;;2.90;2.70;;;;;;;18.22;45.58;100725.47;5052238;28;20223;-61
2021/01/02 06:45:37;;;;;;;2.93;2.73;;;;;;;18.18;46.05;100728.63;5018455;28;20200;-60
2021/01/02 06:48:15;;;;;;;2.73;2.53;;;;;;;18.16;45.93;100731.50;5052279;28;20263;-61
2021/01/02 06:50:41;;;;;;;2.90;2.70;;;;;;;18.16;46.07;100733.38;5034518;28;20191;-61
2021/01/02 06:53:26;;;;;;;2.83;2.63;;;;;;;18.13;45.83;100729.13;5034536;28;20181;-61
2021/01/02 06:56:13;;;;;;;2.83;2.63;;;;;;;18.11;46.10;100731.16;5052031;28;20270;-62
2021/01/02 06:58:42;;;;;;;2.90;2.70;;;;;;;18.09;45.57;100744.88;5034946;28;20828;-62
2021/01/02 07:01:09;;;;;;;2.90;2.70;;;;;;;18.04;45.59;100744.53;5051982;28;20638;-62
2021/01/02 07:03:41;;;;;;;2.83;2.63;;;;;;;17.99;46.31;100749.59;5001601;28;20220;-67
2021/01/02 07:06:26;;;;;;;3.10;2.90;;;;;;;17.96;45.75;100749.03;5051799;28;20276;-67
2021/01/02 07:08:58;;;;;;;2.97;2.77;;;;;;;18.01;46.30;100752.13;5051787;28;20677;-62
2021/01/02 07:11:29;;;;;;;3.20;2.90;;;;;;;18.05;45.77;100758.91;5017798;28;20195;-66
2021/01/02 07:14:17;;;;;;;3.30;3.10;;;;;;;18.09;46.31;100760.28;5051905;28;20205;-67
2021/01/02 07:16:46;;;;;;;2.77;2.57;;;;;;;18.14;46.12;100757.06;5034256;28;20192;-61
2021/01/02 07:19:24;;;;;;;2.80;2.60;;;;;;;18.24;46.51;100753.22;5051692;28;20188;-68
2021/01/02 07:22:02;;;;;;;3.50;3.20;;;;;;;18.34;45.93;100761.19;5051697;28;20204;-61
2021/01/02 07:24:47;;;;;;;3.40;3.10;;;;;;;18.45;46.20;100760.03;5035082;28;20632;-61
2021/01/02 07:27:13;;;;;;;3.17;2.87;;;;;;;18.57;46.22;100764.13;5033901;28;20187;-61
2021/01/02 07:29:44;;;;;;;3.13;2.93;;;;;;;18.65;45.71;100762.31;5051533;28;20192;-61
2021/01/02 07:32:14;;;;;;;2.67;2.47;;;;;;;18.72;45.53;100756.22;5051535;28;20176;-61
2021/01/02 07:34:42;;;;;;;2.70;2.50;;;;;;;18.78;46.03;100763.69;5033946;28;20262;-61
2021/01/02 07:37:10;;;;;;;2.73;2.50;;;;;;;18.81;45.57;100771.47;5051854;28;20600;-67
2021/01/02 07:39:36;;;;;;;3.27;2.60;;;;;;;18.81;45.62;100758.78;5035343;28;20267;-68
2021/01/02 07:42:04;;;;;;;2.80;2.60;;;;;;;18.82;45.84;100774.03;5034757;28;20277;-62
2021/01/02 07:44:30;;;;;;;3.73;2.83;;;;;;;18.79;45.63;100773.53;5034732;28;20245;-62
2021/01/02 07:46:56;;;;;;;3.07;2.77;;;;;;;18.78;45.84;100774.53;5034860;28;20237;-67
2021/01/02 07:49:22;;;;;;;2.83;2.63;;;;;;;18.73;46.06;100777.75;5052353;28;20192;-62
2021/01/02 07:51:49;;;;;;;3.10;2.80;;;;;;;18.69;45.87;100774.53;5034737;28;20192;-63
2021/01/02 07:54:36;;;;;;;3.77;3.00;;;;;;;18.72;46.35;100783.34;5034763;28;20747;-63
2021/01/02 07:57:06;;;;;;;4.17;2.67;;;;;;;18.70;46.30;100786.22;5034603;28;20188;-62
2021/01/02 07:59:37;;;;;;;3.40;3.00;;;;;;;18.65;46.59;100781.28;5019049;28;20196;-69
2021/01/02 08:02:08;;;;;;;4.03;2.83;;;;;;;18.59;46.20;100786.50;5035518;28;20208;-62
2021/01/02 08:04:34;;;;;;;5.87;2.83;;;;;;;18.51;46.56;100781.91;5018866;28;20224;-61
2021/01/02 08:07:07;;;;;;;3.90;2.50;;;;;;;18.44;46.45;100791.69;5018507;28;20184;-60
2021/01/02 08:09:34;;;;;;;3.50;3.20;;;;;;;18.37;46.67;100785.25;5031638;28;20200;-61
2021/01/02 08:12:07;;;;;;;3.63;2.80;;;;;;;18.34;46.78;100789.16;5069675;28;20542;-61
2021/01/02 08:14:34;;;;;;;3.30;3.03;;;;;;;18.35;46.47;100792.72;5052145;28;20728;-61
2021/01/02 08:17:01;;;;;;;5.20;4.10;;;;;;;18.28;45.72;100794.38;5052038;28;20188;-61
2021/01/02 08:19:31;;;;;;;5.33;4.73;;;;;;;18.27;45.86;100800.81;5069745;28;20579;-61
2021/01/02 08:21:57;;;;;;;17.97;16.17;;;;;;;18.09;40.71;100803.63;5069395;28;20227;-61
2021/01/02 08:24:23;;;;;;;20.67;17.77;;;;;;;17.84;39.20;100813.47;5035185;28;20237;-60
2021/01/02 08:26:49;;;;;;;20.37;18.23;;;;;;;17.62;37.75;100809.44;5069270;28;20200;-60
2021/01/02 08:29:16;;;;;;;20.87;18.10;;;;;;;17.36;38.13;100804.00;5035086;28;20188;-64
2021/01/02 08:31:53;;;;;;;19.60;17.03;;;;;;;17.14;38.78;100802.66;5034715;28;20188;-65
2021/01/02 08:34:26;;;;;;;17.93;15.80;;;;;;;17.11;40.33;100802.13;5069047;28;20211;-64
2021/01/02 08:36:56;;;;;;;17.27;14.80;;;;;;;17.12;40.55;100803.81;5069149;28;20203;-65
2021/01/02 08:39:22;;;;;;;16.50;14.57;;;;;;;17.18;41.20;100805.88;5035428;28;20188;-65
2021/01/02 08:41:58;;;;;;;15.40;13.00;;;;;;;17.21;41.79;100813.69;5072282;28;20662;-61
2021/01/02 08:44:29;;;;;;;14.27;12.77;;;;;;;17.30;41.84;100812.75;5073495;28;20207;-61
2021/01/02 08:46:55;;;;;;;12.73;11.50;;;;;;;17.40;41.74;100810.78;5074322;28;20187;-61
2021/01/02 08:49:36;;;;;;;15.00;11.83;;;;;;;17.54;42.17;100817.50;5039808;28;20236;-61
2021/01/02 08:52:25;;;;;;;12.13;10.70;;;;;;;17.67;42.12;100822.47;5074438;28;20183;-65
2021/01/02 08:55:11;;;;;;;10.87;9.60;;;;;;;17.79;42.64;100821.25;5047433;28;20380;-61
2021/01/02 08:57:48;;;;;;;10.43;9.00;;;;;;;17.93;43.27;100826.03;5036522;28;20576;-61
2021/01/02 09:00:21;;;;;;;12.03;8.80;;;;;;;18.06;43.93;100823.75;5034808;28;20192;-61
2021/01/02 09:02:49;;;;;;;11.50;8.23;;;;;;;18.18;43.98;100820.75;5051542;28;20552;-67
2021/01/02 09:05:25;;;;;;;9.50;7.43;;;;;;;18.31;43.78;100829.28;5033120;28;20248;-64
2021/01/02 09:08:19;;;;;;;8.23;7.40;;;;;;;18.42;43.99;100820.84;5034014;28;20802;-70
2021/01/02 09:10:45;;;;;;;8.07;7.03;;;;;;;18.54;44.64;100822.25;5036445;28;20273;-66
2021/01/02 09:13:25;;;;;;;8.37;6.70;;;;;;;18.64;44.43;100830.25;5051123;28;20216;-66
2021/01/02 09:15:54;;;;;;;7.73;6.70;;;;;;;18.74;44.47;100836.41;5035077;28;20192;-66
2021/01/02 09:18:29;;;;;;;7.63;6.03;;;;;;;18.83;44.69;100834.53;5051888;28;20192;-66
2021/01/02 09:20:59;;;;;;;6.80;6.10;;;;;;;18.89;44.49;100842.00;5051490;28;20298;-64
2021/01/02 09:23:40;;;;;;;7.67;6.03;;;;;;;18.96;44.30;100851.19;5018255;28;20237;-64
2021/01/02 09:26:26;;;;;;;6.37;5.50;;;;;;;19.05;44.05;100852.03;5019893;28;20180;-64
2021/01/02 09:28:53;;;;;;;6.87;5.50;;;;;;;19.10;44.25;100847.78;5034889;28;20177;-67
2021/01/02 09:31:19;;;;;;;6.83;5.43;;;;;;;19.15;44.16;100852.72;5052860;28;20192;-66
2021/01/02 09:33:45;;;;;;;5.43;4.87;;;;;;;19.20;44.08;100859.34;5053540;28;20907;-66
2021/01/02 09:36:13;;;;;;;5.60;4.97;;;;;;;19.26;44.16;100864.09;5053963;28;20184;-66
2021/01/02 09:38:39;;;;;;;6.10;5.30;;;;;;;19.31;44.09;100852.72;5036166;28;20255;-66
2021/01/02 09:41:05;;;;;;;5.20;4.70;;;;;;;19.37;43.89;100860.19;5053535;28;20612;-66
2021/01/02 09:43:31;;;;;;;4.77;4.20;;;;;;;19.42;43.83;100852.41;5019340;28;20200;-66
2021/01/02 09:45:57;;;;;;;5.13;4.63;;;;;;;19.46;44.03;100861.03;5053455;28;20191;-66
2021/01/02 09:48:23;;;;;;;4.90;4.30;;;;;;;19.51;43.91;100864.09;5053341;28;20686;-67
2021/01/02 09:50:50;;;;;;;5.13;4.30;;;;;;;19.54;43.91;100855.63;5053097;28;20185;-67
2021/01/02 09:53:16;;;;;;;5.53;4.60;;;;;;;19.60;43.86;100857.66;5053408;28;20223;-67
2021/01/02 09:55:42;;;;;;;4.70;4.30;;;;;;;19.63;43.75;100860.03;5003075;28;20602;-64
2021/01/02 09:58:10;;;;;;;5.27;4.40;;;;;;;19.67;43.77;100855.97;5053314;28;20184;-65
2021/01/02 10:00:37;;;;;;;5.07;4.27;;;;;;;19.71;43.76;100857.31;5053109;28;20184;-64
2021/01/02 10:03:03;;;;;;;4.37;3.90;;;;;;;19.75;43.71;100858.66;5052801;28;20204;-65
2021/01/02 10:05:29;;;;;;;4.73;4.33;;;;;;;19.79;43.63;100859.16;5035813;28;20207;-64
2021/01/02 10:07:55;;;;;;;4.17;3.77;;;;;;;19.82;43.83;100862.38;5032000;28;20275;-64
2021/01/02 10:10:21;;;;;;;4.53;4.13;;;;;;;19.86;43.92;100861.00;5020824;28;20192;-64
2021/01/02 10:12:48;;;;;;;4.50;4.10;;;;;;;19.92;43.80;100864.91;5051155;28;20926;-67
2021/01/02 10:15:15;;;;;;;4.67;4.27;;;;;;;19.94;43.93;100868.31;5052906;28;20290;-66
2021/01/02 10:17:41;;;;;;;4.07;3.77;;;;;;;19.97;43.88;100861.69;5025561;28;20187;-66
2021/01/02 10:20:08;;;;;;;4.30;3.90;;;;;;;20.00;43.55;100861.31;5035203;28;20195;-66
2021/01/02 10:22:34;;;;;;;4.13;3.83;;;;;;;20.05;43.83;100867.09;5052150;28;20656;-66
2021/01/02 10:25:00;;;;;;;4.00;3.70;;;;;;;20.07;43.52;100862.31;5043013;28;20216;-66
2021/01/02 10:27:26;;;;;;;4.20;3.80;;;;;;;20.11;43.61;100869.09;5052606;28;20188;-66
2021/01/02 10:29:53;;;;;;;4.20;3.80;;;;;;;20.13;43.69;100857.06;5052566;28;20273;-66
2021/01/02 10:32:20;;;;;;;4.30;3.90;;;;;;;20.18;43.83;100861.97;5052355;28;20215;-64
2021/01/02 10:34:46;;;;;;;4.13;3.83;;;;;;;20.19;43.50;100859.06;5041755;28;20243;-64
2021/01/02 10:37:13;;;;;;;4.40;4.00;;;;;;;20.25;43.63;100860.22;5049332;28;20551;-64
2021/01/02 10:39:39;;;;;;;4.03;3.70;;;;;;;20.30;43.72;100863.25;5049343;28;20927;-64
2021/01/02 10:42:06;;;;;;;4.83;4.13;;;;;;;20.35;43.90;100855.44;5031621;28;20212;-64
2021/01/02 10:44:32;;;;;;;4.00;3.40;;;;;;;20.40;43.92;100852.19;5032052;28;20266;-69
2021/01/02 10:46:59;;;;;;;4.43;4.03;;;;;;;20.44;43.79;100859.84;5034236;28;20662;-66
2021/01/02 10:49:25;;;;;;;4.53;3.80;;;;;;;20.48;43.94;100849.47;5027350;28;20184;-65
2021/01/02 10:51:51;;;;;;;5.23;3.97;;;;;;;20.53;44.10;100845.19;5040945;28;20633;-69
2021/01/02 10:54:17;;;;;;;4.03;3.63;;;;;;;20.58;43.96;100844.63;5032728;28;20208;-69
2021/01/02 10:56:48;;;;;;;3.90;3.50;;;;;;;20.63;44.04;100835.97;5050087;28;20192;-67
2021/01/02 10:59:14;;;;;;;4.17;3.77;;;;;;;20.67;43.98;100829.97;5025292;28;20184;-68
2021/01/02 11:01:44;;;;;;;4.37;3.60;;;;;;;20.70;44.13;100832.34;5029643;28;20323;-69
2021/01/02 11:04:11;;;;;;;4.67;4.00;;;;;;;20.75;44.24;100823.63;5033334;28;20220;-67
2021/01/02 11:06:41;;;;;;;4.43;3.70;;;;;;;20.79;44.31;100825.81;5016646;28;20192;-67
2021/01/02 11:09:08;;;;;;;5.13;3.43;;;;;;;20.82;44.17;100821.91;5016559;28;20199;-66
2021/01/02 11:11:34;;;;;;;4.00;3.40;;;;;;;20.87;44.26;100815.94;5033131;28;20185;-66
2021/01/02 11:14:00;;;;;;;5.13;3.67;;;;;;;20.90;44.20;100810.13;5016101;28;20208;-65
2021/01/02 11:16:34;;;;;;;7.07;3.70;;;;;;;20.93;44.36;100813.31;5032677;28;20192;-65
2021/01/02 11:19:00;;;;;;;4.20;3.80;;;;;;;20.98;44.59;100813.63;5032667;28;20212;-67
2021/01/02 11:21:26;;;;;;;5.10;3.43;;;;;;;21.02;44.29;100803.22;5016021;28;20203;-64
2021/01/02 11:23:52;;;;;;;4.70;3.67;;;;;;;21.05;44.40;100803.69;5014512;28;20583;-65
2021/01/02 11:26:18;;;;;;;5.67;3.73;;;;;;;21.08;44.52;100800.63;5040500;28;20188;-65
2021/01/02 11:28:44;;;;;;;4.47;3.67;;;;;;;21.10;44.45;100801.28;5032533;28;20196;-68
2021/01/02 11:31:11;;;;;;;5.00;3.43;;;;;;;21.15;44.39;100792.56;5032084;28;20285;-69
2021/01/02 11:33:37;;;;;;;5.03;3.50;;;;;;;21.17;44.24;100784.22;5031720;28;20303;-68
2021/01/02 11:36:04;;;;;;;3.73;3.30;;;;;;;21.21;44.17;100782.81;5015583;28;20183;-69
2021/01/02 11:38:30;;;;;;;6.83;3.73;;;;;;;21.22;44.03;100781.78;5032496;28;20196;-73
2021/01/02 11:40:56;;;;;;;6.00;3.63;;;;;;;21.25;44.16;100781.44;5017451;28;20176;-63